sensor_id;sensor_type;location;lat;lon;timestamp;pressure;altitude;pressure_sealevel;temperature;humidity
62462;BME280;48511;38.664;-9.202;2022-10-16T00:01:23;100593.53;;;17.43;88.20
62462;BME280;48511;38.664;-9.202;2022-10-16T00:03:24;100593.44;;;17.45;88.45
62462;BME280;48511;38.664;-9.202;2022-10-16T00:05:25;100603.13;;;17.44;88.04
62462;BME280;48511;38.664;-9.202;2022-10-16T00:07:26;100596.16;;;17.43;87.97
62462;BME280;48511;38.664;-9.202;2022-10-16T00:09:27;100598.78;;;17.43;88.13
62462;BME280;48511;38.664;-9.202;2022-10-16T00:11:32;100596.91;;;17.45;88.25
62462;BME280;48511;38.664;-9.202;2022-10-16T00:13:41;100589.00;;;17.45;88.03
62462;BME280;48511;38.664;-9.202;2022-10-16T00:15:42;100593.31;;;17.46;88.01
62462;BME280;48511;38.664;-9.202;2022-10-16T00:17:44;100581.09;;;17.45;88.13
62462;BME280;48511;38.664;-9.202;2022-10-16T00:19:44;100575.81;;;17.45;87.96
62462;BME280;48511;38.664;-9.202;2022-10-16T00:21:45;100566.97;;;17.46;88.14
62462;BME280;48511;38.664;-9.202;2022-10-16T00:23:46;100571.06;;;17.50;87.73
62462;BME280;48511;38.664;-9.202;2022-10-16T00:26:02;100582.78;;;17.46;87.80
62462;BME280;48511;38.664;-9.202;2022-10-16T00:28:03;100575.81;;;17.45;87.86
62462;BME280;48511;38.664;-9.202;2022-10-16T00:30:04;100572.38;;;17.45;88.10
62462;BME280;48511;38.664;-9.202;2022-10-16T00:32:05;100566.47;;;17.41;88.10
62462;BME280;48511;38.664;-9.202;2022-10-16T00:34:06;100569.00;;;17.43;88.16
62462;BME280;48511;38.664;-9.202;2022-10-16T00:36:09;100562.03;;;17.42;88.33
62462;BME280;48511;38.664;-9.202;2022-10-16T00:38:10;100542.75;;;17.41;88.49
62462;BME280;48511;38.664;-9.202;2022-10-16T00:40:11;100552.34;;;17.42;88.47
62462;BME280;48511;38.664;-9.202;2022-10-16T00:42:16;100550.66;;;17.41;88.72
62462;BME280;48511;38.664;-9.202;2022-10-16T00:46:43;100548.75;;;17.43;88.73
62462;BME280;48511;38.664;-9.202;2022-10-16T00:48:56;100552.75;;;17.49;88.51
62462;BME280;48511;38.664;-9.202;2022-10-16T00:50:58;100536.31;;;17.45;88.38
62462;BME280;48511;38.664;-9.202;2022-10-16T00:53:00;100539.88;;;17.44;88.79
62462;BME280;48511;38.664;-9.202;2022-10-16T00:55:03;100532.94;;;17.43;89.00
62462;BME280;48511;38.664;-9.202;2022-10-16T00:57:06;100538.22;;;17.43;88.90
62462;BME280;48511;38.664;-9.202;2022-10-16T00:59:12;100531.16;;;17.44;88.72
62462;BME280;48511;38.664;-9.202;2022-10-16T01:01:15;100523.47;;;17.41;88.79
62462;BME280;48511;38.664;-9.202;2022-10-16T01:03:33;100515.47;;;17.42;88.80
62462;BME280;48511;38.664;-9.202;2022-10-16T01:05:49;100523.25;;;17.44;88.82
62462;BME280;48511;38.664;-9.202;2022-10-16T01:08:31;100527.59;;;17.45;88.68
62462;BME280;48511;38.664;-9.202;2022-10-16T01:10:41;100527.66;;;17.43;88.84
62462;BME280;48511;38.664;-9.202;2022-10-16T01:15:05;100524.09;;;17.44;88.87
62462;BME280;48511;38.664;-9.202;2022-10-16T01:17:17;100517.88;;;17.45;89.04
62462;BME280;48511;38.664;-9.202;2022-10-16T01:21:47;100531.78;;;17.47;88.85
62462;BME280;48511;38.664;-9.202;2022-10-16T01:30:58;100514.91;;;17.50;88.39
62462;BME280;48511;38.664;-9.202;2022-10-16T01:33:03;100503.63;;;17.48;88.57
62462;BME280;48511;38.664;-9.202;2022-10-16T01:35:18;100500.88;;;17.49;88.74
62462;BME280;48511;38.664;-9.202;2022-10-16T01:37:37;100514.06;;;17.49;88.81
62462;BME280;48511;38.664;-9.202;2022-10-16T01:39:42;100501.13;;;17.46;88.86
62462;BME280;48511;38.664;-9.202;2022-10-16T01:41:49;100502.06;;;17.45;89.15
62462;BME280;48511;38.664;-9.202;2022-10-16T01:44:10;100499.44;;;17.45;88.94
62462;BME280;48511;38.664;-9.202;2022-10-16T01:46:13;100497.75;;;17.44;89.13
62462;BME280;48511;38.664;-9.202;2022-10-16T01:48:18;100491.53;;;17.45;89.27
62462;BME280;48511;38.664;-9.202;2022-10-16T01:50:20;100491.41;;;17.47;89.23
62462;BME280;48511;38.664;-9.202;2022-10-16T01:52:23;100487.00;;;17.47;89.04
62462;BME280;48511;38.664;-9.202;2022-10-16T01:54:27;100486.13;;;17.47;89.18
62462;BME280;48511;38.664;-9.202;2022-10-16T01:56:30;100478.25;;;17.47;89.30
62462;BME280;48511;38.664;-9.202;2022-10-16T01:58:36;100469.50;;;17.46;89.12
62462;BME280;48511;38.664;-9.202;2022-10-16T02:00:39;100464.94;;;17.48;88.87
62462;BME280;48511;38.664;-9.202;2022-10-16T02:02:45;100472.84;;;17.48;89.09
62462;BME280;48511;38.664;-9.202;2022-10-16T02:04:53;100475.59;;;17.47;88.99
62462;BME280;48511;38.664;-9.202;2022-10-16T02:06:55;100483.88;;;17.42;89.04
62462;BME280;48511;38.664;-9.202;2022-10-16T02:08:56;100475.59;;;17.47;89.16
62462;BME280;48511;38.664;-9.202;2022-10-16T02:10:57;100481.72;;;17.47;89.23
62462;BME280;48511;38.664;-9.202;2022-10-16T02:15:14;100479.53;;;17.41;89.78
62462;BME280;48511;38.664;-9.202;2022-10-16T02:17:16;100472.09;;;17.35;89.95
62462;BME280;48511;38.664;-9.202;2022-10-16T02:19:18;100475.66;;;17.34;90.08
62462;BME280;48511;38.664;-9.202;2022-10-16T02:21:26;100480.94;;;17.34;90.30
62462;BME280;48511;38.664;-9.202;2022-10-16T02:25:55;100489.78;;;17.33;90.77
62462;BME280;48511;38.664;-9.202;2022-10-16T02:28:06;100484.50;;;17.33;90.76
62462;BME280;48511;38.664;-9.202;2022-10-16T02:30:25;100481.78;;;17.34;90.54
62462;BME280;48511;38.664;-9.202;2022-10-16T02:32:32;100486.94;;;17.36;90.67
62462;BME280;48511;38.664;-9.202;2022-10-16T02:34:33;100480.94;;;17.34;90.64
62462;BME280;48511;38.664;-9.202;2022-10-16T02:36:35;100483.13;;;17.40;90.61
62462;BME280;48511;38.664;-9.202;2022-10-16T02:38:37;100484.63;;;17.55;89.62
62462;BME280;48511;38.664;-9.202;2022-10-16T02:40:39;100489.63;;;17.47;89.66
62462;BME280;48511;38.664;-9.202;2022-10-16T02:42:41;100488.41;;;17.40;90.29
62462;BME280;48511;38.664;-9.202;2022-10-16T02:44:41;100496.41;;;17.38;90.43
62462;BME280;48511;38.664;-9.202;2022-10-16T02:46:42;100497.47;;;17.36;90.83
62462;BME280;48511;38.664;-9.202;2022-10-16T02:48:43;100501.19;;;17.33;90.97
62462;BME280;48511;38.664;-9.202;2022-10-16T02:50:44;100510.16;;;17.31;91.22
62462;BME280;48511;38.664;-9.202;2022-10-16T02:52:44;100506.66;;;17.30;91.04
62462;BME280;48511;38.664;-9.202;2022-10-16T02:54:45;100506.56;;;17.32;90.90
62462;BME280;48511;38.664;-9.202;2022-10-16T02:56:46;100506.44;;;17.33;90.65
62462;BME280;48511;38.664;-9.202;2022-10-16T02:58:46;100500.13;;;17.36;90.21
62462;BME280;48511;38.664;-9.202;2022-10-16T03:00:47;100499.25;;;17.35;90.09
62462;BME280;48511;38.664;-9.202;2022-10-16T03:02:48;100499.38;;;17.34;89.70
62462;BME280;48511;38.664;-9.202;2022-10-16T03:04:49;100493.16;;;17.35;89.86
62462;BME280;48511;38.664;-9.202;2022-10-16T03:06:50;100484.31;;;17.36;89.73
62462;BME280;48511;38.664;-9.202;2022-10-16T03:08:50;100486.00;;;17.37;89.86
62462;BME280;48511;38.664;-9.202;2022-10-16T03:10:51;100477.13;;;17.38;89.62
62462;BME280;48511;38.664;-9.202;2022-10-16T03:12:52;100478.81;;;17.39;89.68
62462;BME280;48511;38.664;-9.202;2022-10-16T03:14:53;100480.38;;;17.42;89.54
62462;BME280;48511;38.664;-9.202;2022-10-16T03:16:54;100480.25;;;17.43;89.33
62462;BME280;48511;38.664;-9.202;2022-10-16T03:18:54;100470.56;;;17.44;89.30
62462;BME280;48511;38.664;-9.202;2022-10-16T03:20:55;100469.63;;;17.45;88.90
62462;BME280;48511;38.664;-9.202;2022-10-16T03:22:56;100463.94;;;17.38;88.66
62462;BME280;48511;38.664;-9.202;2022-10-16T03:24:56;100462.06;;;17.40;88.63
62462;BME280;48511;38.664;-9.202;2022-10-16T03:26:57;100459.41;;;17.40;88.63
62462;BME280;48511;38.664;-9.202;2022-10-16T03:28:58;100466.50;;;17.40;88.62
62462;BME280;48511;38.664;-9.202;2022-10-16T03:30:59;100459.41;;;17.40;88.43
62462;BME280;48511;38.664;-9.202;2022-10-16T03:32:59;100464.44;;;17.43;88.36
62462;BME280;48511;38.664;-9.202;2022-10-16T03:35:00;100460.47;;;17.37;87.99
62462;BME280;48511;38.664;-9.202;2022-10-16T03:37:01;100474.97;;;17.43;87.85
62462;BME280;48511;38.664;-9.202;2022-10-16T03:39:02;100464.44;;;17.43;87.87
62462;BME280;48511;38.664;-9.202;2022-10-16T03:41:03;100458.47;;;17.41;87.75
62462;BME280;48511;38.664;-9.202;2022-10-16T03:43:04;100465.06;;;17.47;87.39
62462;BME280;48511;38.664;-9.202;2022-10-16T03:45:05;100455.59;;;17.44;87.55
62462;BME280;48511;38.664;-9.202;2022-10-16T03:47:06;100457.72;;;17.39;87.13
62462;BME280;48511;38.664;-9.202;2022-10-16T03:49:07;100462.78;;;17.42;87.31
62462;BME280;48511;38.664;-9.202;2022-10-16T03:51:07;100443.72;;;17.38;87.43
62462;BME280;48511;38.664;-9.202;2022-10-16T03:53:08;100445.06;;;17.44;87.11
62462;BME280;48511;38.664;-9.202;2022-10-16T03:55:09;100450.31;;;17.44;87.04
62462;BME280;48511;38.664;-9.202;2022-10-16T03:57:10;100446.97;;;17.42;87.14
62462;BME280;48511;38.664;-9.202;2022-10-16T03:59:10;100443.50;;;17.42;87.32
62462;BME280;48511;38.664;-9.202;2022-10-16T04:01:11;100447.19;;;17.39;87.70
62462;BME280;48511;38.664;-9.202;2022-10-16T04:03:12;100448.13;;;17.38;87.78
62462;BME280;48511;38.664;-9.202;2022-10-16T04:05:12;100454.16;;;17.40;87.60
62462;BME280;48511;38.664;-9.202;2022-10-16T04:07:13;100454.03;;;17.42;87.65
62462;BME280;48511;38.664;-9.202;2022-10-16T04:09:14;100460.66;;;17.47;87.00
62462;BME280;48511;38.664;-9.202;2022-10-16T04:11:14;100457.53;;;17.42;87.25
62462;BME280;48511;38.664;-9.202;2022-10-16T04:13:15;100462.78;;;17.42;87.50
62462;BME280;48511;38.664;-9.202;2022-10-16T04:15:16;100458.47;;;17.41;87.34
62462;BME280;48511;38.664;-9.202;2022-10-16T04:17:16;100469.72;;;17.43;87.63
62462;BME280;48511;38.664;-9.202;2022-10-16T04:19:17;100474.53;;;17.49;87.09
62462;BME280;48511;38.664;-9.202;2022-10-16T04:21:18;100464.44;;;17.43;87.38
62462;BME280;48511;38.664;-9.202;2022-10-16T04:23:18;100471.41;;;17.44;87.12
62462;BME280;48511;38.664;-9.202;2022-10-16T04:25:19;100476.47;;;17.47;86.99
62462;BME280;48511;38.664;-9.202;2022-10-16T04:27:20;100474.97;;;17.43;87.02
62462;BME280;48511;38.664;-9.202;2022-10-16T04:29:21;100470.56;;;17.44;86.85
62462;BME280;48511;38.664;-9.202;2022-10-16T04:31:21;100480.25;;;17.43;87.18
62462;BME280;48511;38.664;-9.202;2022-10-16T04:33:22;100472.47;;;17.42;87.18
62462;BME280;48511;38.664;-9.202;2022-10-16T04:35:23;100469.50;;;17.46;86.95
62462;BME280;48511;38.664;-9.202;2022-10-16T04:37:25;100466.38;;;17.41;87.32
62462;BME280;48511;38.664;-9.202;2022-10-16T04:39:25;100466.38;;;17.41;87.28
62462;BME280;48511;38.664;-9.202;2022-10-16T04:41:26;100469.50;;;17.46;87.09
62462;BME280;48511;38.664;-9.202;2022-10-16T04:43:27;100461.72;;;17.45;86.96
62462;BME280;48511;38.664;-9.202;2022-10-16T04:45:28;100467.56;;;17.48;86.94
62462;BME280;48511;38.664;-9.202;2022-10-16T04:47:28;100463.53;;;17.55;86.57
62462;BME280;48511;38.664;-9.202;2022-10-16T04:49:29;100472.41;;;17.54;86.63
62462;BME280;48511;38.664;-9.202;2022-10-16T04:51:30;100472.84;;;17.48;86.93
62462;BME280;48511;38.664;-9.202;2022-10-16T04:53:30;100477.41;;;17.46;87.22
62462;BME280;48511;38.664;-9.202;2022-10-16T04:55:31;100480.88;;;17.47;87.14
62462;BME280;48511;38.664;-9.202;2022-10-16T04:57:32;100483.75;;;17.44;87.19
62462;BME280;48511;38.664;-9.202;2022-10-16T04:59:33;100493.22;;;17.46;87.33
62462;BME280;48511;38.664;-9.202;2022-10-16T05:01:34;100493.94;;;17.48;87.19
62462;BME280;48511;38.664;-9.202;2022-10-16T05:03:35;100499.19;;;17.48;87.28
62462;BME280;48511;38.664;-9.202;2022-10-16T05:05:36;100492.97;;;17.49;87.16
62462;BME280;48511;38.664;-9.202;2022-10-16T05:07:37;100498.97;;;17.51;87.19
62462;BME280;48511;38.664;-9.202;2022-10-16T05:09:38;100496.34;;;17.51;87.27
62462;BME280;48511;38.664;-9.202;2022-10-16T05:11:38;100498.97;;;17.51;87.38
62462;BME280;48511;38.664;-9.202;2022-10-16T05:13:39;100502.31;;;17.53;87.69
62462;BME280;48511;38.664;-9.202;2022-10-16T05:15:40;100508.47;;;17.54;87.86
62462;BME280;48511;38.664;-9.202;2022-10-16T05:17:40;100508.34;;;17.55;88.08
62462;BME280;48511;38.664;-9.202;2022-10-16T05:19:41;100501.25;;;17.56;88.35
62462;BME280;48511;38.664;-9.202;2022-10-16T05:21:42;100504.56;;;17.47;88.61
62462;BME280;48511;38.664;-9.202;2022-10-16T05:23:42;100509.72;;;17.48;88.95
62462;BME280;48511;38.664;-9.202;2022-10-16T05:25:43;100503.00;;;17.44;89.55
62462;BME280;48511;38.664;-9.202;2022-10-16T05:27:51;100508.72;;;17.38;90.52
62462;BME280;48511;38.664;-9.202;2022-10-16T05:29:52;100506.84;;;17.40;90.63
62462;BME280;48511;38.664;-9.202;2022-10-16T05:31:53;100516.13;;;17.33;91.62
62462;BME280;48511;38.664;-9.202;2022-10-16T05:33:58;100509.53;;;17.27;92.06
62462;BME280;48511;38.664;-9.202;2022-10-16T05:36:04;100507.94;;;17.25;92.59
62462;BME280;48511;38.664;-9.202;2022-10-16T05:38:05;100517.84;;;17.21;93.58
62462;BME280;48511;38.664;-9.202;2022-10-16T05:40:06;100508.19;;;17.21;93.29
62462;BME280;48511;38.664;-9.202;2022-10-16T05:42:07;100512.97;;;17.28;93.47
62462;BME280;48511;38.664;-9.202;2022-10-16T05:44:08;100508.38;;;17.18;94.37
62462;BME280;48511;38.664;-9.202;2022-10-16T05:46:09;100499.97;;;17.13;95.29
62462;BME280;48511;38.664;-9.202;2022-10-16T05:48:10;100506.31;;;17.11;95.70
62462;BME280;48511;38.664;-9.202;2022-10-16T05:50:10;100498.66;;;17.08;95.70
62462;BME280;48511;38.664;-9.202;2022-10-16T05:52:11;100507.59;;;17.05;96.07
62462;BME280;48511;38.664;-9.202;2022-10-16T05:54:12;100503.28;;;17.04;96.37
62462;BME280;48511;38.664;-9.202;2022-10-16T05:56:13;100506.97;;;17.01;97.39
62462;BME280;48511;38.664;-9.202;2022-10-16T05:58:13;100508.22;;;16.96;98.42
62462;BME280;48511;38.664;-9.202;2022-10-16T06:00:14;100503.41;;;16.89;99.40
62462;BME280;48511;38.664;-9.202;2022-10-16T06:02:15;100497.28;;;16.89;99.13
62462;BME280;48511;38.664;-9.202;2022-10-16T06:04:16;100506.97;;;16.88;99.35
62462;BME280;48511;38.664;-9.202;2022-10-16T06:06:22;100506.13;;;16.88;99.50
62462;BME280;48511;38.664;-9.202;2022-10-16T06:08:23;100505.28;;;16.87;99.88
62462;BME280;48511;38.664;-9.202;2022-10-16T06:10:24;100496.88;;;16.82;99.99
62462;BME280;48511;38.664;-9.202;2022-10-16T06:12:24;100500.47;;;16.81;99.92
62462;BME280;48511;38.664;-9.202;2022-10-16T06:14:25;100499.81;;;16.78;100.00
62462;BME280;48511;38.664;-9.202;2022-10-16T06:16:26;100496.38;;;16.77;100.00
62462;BME280;48511;38.664;-9.202;2022-10-16T06:18:28;100504.25;;;16.77;100.00
62462;BME280;48511;38.664;-9.202;2022-10-16T06:20:30;100498.25;;;16.75;99.95
62462;BME280;48511;38.664;-9.202;2022-10-16T06:22:31;100494.47;;;16.79;99.91
62462;BME280;48511;38.664;-9.202;2022-10-16T06:24:31;100495.31;;;16.80;99.70
62462;BME280;48511;38.664;-9.202;2022-10-16T06:26:32;100486.34;;;16.82;99.46
62462;BME280;48511;38.664;-9.202;2022-10-16T06:28:33;100490.56;;;16.85;99.27
62462;BME280;48511;38.664;-9.202;2022-10-16T06:30:34;100484.47;;;16.84;99.27
62462;BME280;48511;38.664;-9.202;2022-10-16T06:32:35;100490.44;;;16.86;99.12
62462;BME280;48511;38.664;-9.202;2022-10-16T06:34:35;100487.94;;;16.85;98.88
62462;BME280;48511;38.664;-9.202;2022-10-16T06:36:37;100484.34;;;16.86;98.96
62462;BME280;48511;38.664;-9.202;2022-10-16T06:38:38;100486.66;;;16.91;98.95
62462;BME280;48511;38.664;-9.202;2022-10-16T06:40:39;100478.97;;;16.87;98.94
62462;BME280;48511;38.664;-9.202;2022-10-16T06:42:40;100487.59;;;16.89;98.81
62462;BME280;48511;38.664;-9.202;2022-10-16T06:44:41;100481.59;;;16.87;98.94
62462;BME280;48511;38.664;-9.202;2022-10-16T06:46:41;100478.97;;;16.87;99.01
62462;BME280;48511;38.664;-9.202;2022-10-16T06:48:42;100483.19;;;16.90;98.51
62462;BME280;48511;38.664;-9.202;2022-10-16T06:50:43;100483.28;;;16.88;98.62
62462;BME280;48511;38.664;-9.202;2022-10-16T06:52:44;100479.91;;;16.86;98.44
62462;BME280;48511;38.664;-9.202;2022-10-16T06:54:44;100477.28;;;16.86;98.75
62462;BME280;48511;38.664;-9.202;2022-10-16T06:56:45;100477.09;;;16.89;98.47
62462;BME280;48511;38.664;-9.202;2022-10-16T06:58:46;100477.28;;;16.86;98.74
62462;BME280;48511;38.664;-9.202;2022-10-16T07:00:47;100479.91;;;16.86;98.53
62462;BME280;48511;38.664;-9.202;2022-10-16T07:02:49;100479.91;;;16.86;98.65
62462;BME280;48511;38.664;-9.202;2022-10-16T07:04:50;100476.56;;;16.84;98.78
62462;BME280;48511;38.664;-9.202;2022-10-16T07:06:50;100486.13;;;16.85;98.72
62462;BME280;48511;38.664;-9.202;2022-10-16T07:08:52;100492.25;;;16.86;98.50
62462;BME280;48511;38.664;-9.202;2022-10-16T07:11:01;100492.25;;;16.86;98.54
62462;BME280;48511;38.664;-9.202;2022-10-16T07:13:02;100484.47;;;16.84;98.85
62462;BME280;48511;38.664;-9.202;2022-10-16T07:15:03;100486.88;;;16.87;98.56
62462;BME280;48511;38.664;-9.202;2022-10-16T07:17:04;100486.88;;;16.87;98.63
62462;BME280;48511;38.664;-9.202;2022-10-16T07:19:05;100489.50;;;16.87;98.61
62462;BME280;48511;38.664;-9.202;2022-10-16T07:23:15;100489.50;;;16.87;98.66
62462;BME280;48511;38.664;-9.202;2022-10-16T07:25:16;100486.88;;;16.87;98.27
62462;BME280;48511;38.664;-9.202;2022-10-16T07:27:16;100485.91;;;16.88;98.38
62462;BME280;48511;38.664;-9.202;2022-10-16T07:29:19;100492.78;;;16.91;98.38
62462;BME280;48511;38.664;-9.202;2022-10-16T07:31:21;100489.28;;;16.91;98.08
62462;BME280;48511;38.664;-9.202;2022-10-16T07:33:22;100489.28;;;16.91;98.20
62462;BME280;48511;38.664;-9.202;2022-10-16T07:35:23;100491.84;;;16.92;98.17
62462;BME280;48511;38.664;-9.202;2022-10-16T07:37:24;100496.06;;;16.95;98.09
62462;BME280;48511;38.664;-9.202;2022-10-16T07:39:24;100494.38;;;16.94;97.92
62462;BME280;48511;38.664;-9.202;2022-10-16T07:41:25;100496.06;;;16.95;97.70
62462;BME280;48511;38.664;-9.202;2022-10-16T07:43:26;100504.47;;;17.00;97.71
62462;BME280;48511;38.664;-9.202;2022-10-16T07:45:27;100509.50;;;17.03;97.67
62462;BME280;48511;38.664;-9.202;2022-10-16T07:47:28;100505.69;;;17.07;97.48
62462;BME280;48511;38.664;-9.202;2022-10-16T07:49:29;100520.31;;;17.11;97.39
62462;BME280;48511;38.664;-9.202;2022-10-16T07:51:30;100511.25;;;17.15;97.12
62462;BME280;48511;38.664;-9.202;2022-10-16T07:53:31;100510.06;;;17.19;96.96
62462;BME280;48511;38.664;-9.202;2022-10-16T07:55:32;100513.22;;;17.25;96.69
62462;BME280;48511;38.664;-9.202;2022-10-16T07:57:33;100507.72;;;17.28;96.47
62462;BME280;48511;38.664;-9.202;2022-10-16T07:59:34;100510.34;;;17.28;96.07
62462;BME280;48511;38.664;-9.202;2022-10-16T08:01:34;100517.09;;;17.32;96.22
62462;BME280;48511;38.664;-9.202;2022-10-16T08:03:35;100512.97;;;17.28;94.39
62462;BME280;48511;38.664;-9.202;2022-10-16T08:05:36;100517.09;;;17.32;95.08
62462;BME280;48511;38.664;-9.202;2022-10-16T08:07:37;100510.84;;;17.33;94.81
62462;BME280;48511;38.664;-9.202;2022-10-16T08:09:38;100516.63;;;17.38;94.86
62462;BME280;48511;38.664;-9.202;2022-10-16T08:11:39;100516.41;;;17.41;94.72
62462;BME280;48511;38.664;-9.202;2022-10-16T08:13:40;100529.16;;;17.47;94.67
62462;BME280;48511;38.664;-9.202;2022-10-16T08:15:45;100524.47;;;17.51;94.24
62462;BME280;48511;38.664;-9.202;2022-10-16T08:17:59;100525.84;;;17.57;93.77
62462;BME280;48511;38.664;-9.202;2022-10-16T08:20:00;100526.53;;;17.59;93.92
62462;BME280;48511;38.664;-9.202;2022-10-16T08:22:02;100527.91;;;17.64;93.40
62462;BME280;48511;38.664;-9.202;2022-10-16T08:24:02;100524.09;;;17.68;93.40
62462;BME280;48511;38.664;-9.202;2022-10-16T08:26:05;100532.59;;;17.72;92.84
62462;BME280;48511;38.664;-9.202;2022-10-16T08:28:08;100536.56;;;17.78;92.78
62462;BME280;48511;38.664;-9.202;2022-10-16T08:30:09;100537.19;;;17.81;92.64
62462;BME280;48511;38.664;-9.202;2022-10-16T08:32:11;100551.94;;;17.84;91.63
62462;BME280;48511;38.664;-9.202;2022-10-16T08:34:11;100556.38;;;17.83;90.73
62462;BME280;48511;38.664;-9.202;2022-10-16T08:36:12;100547.53;;;17.84;90.96
62462;BME280;48511;38.664;-9.202;2022-10-16T08:38:13;100542.00;;;17.87;90.99
62462;BME280;48511;38.664;-9.202;2022-10-16T08:40:20;100548.72;;;17.92;90.70
62462;BME280;48511;38.664;-9.202;2022-10-16T08:42:41;100555.03;;;18.02;90.42
62462;BME280;48511;38.664;-9.202;2022-10-16T08:47:19;100556.59;;;18.04;89.74
62462;BME280;48511;38.664;-9.202;2022-10-16T08:49:20;100559.00;;;18.08;89.68
62462;BME280;48511;38.664;-9.202;2022-10-16T08:51:29;100557.19;;;18.08;89.37
62462;BME280;48511;38.664;-9.202;2022-10-16T08:53:38;100551.81;;;18.10;89.24
62462;BME280;48511;38.664;-9.202;2022-10-16T08:55:52;100560.13;;;18.16;89.10
62462;BME280;48511;38.664;-9.202;2022-10-16T08:57:53;100543.31;;;18.17;88.70
62462;BME280;48511;38.664;-9.202;2022-10-16T08:59:59;100550.66;;;18.25;88.39
62462;BME280;48511;38.664;-9.202;2022-10-16T09:02:00;100555.13;;;18.36;87.91
62462;BME280;48511;38.664;-9.202;2022-10-16T09:04:15;100556.44;;;18.42;87.38
62462;BME280;48511;38.664;-9.202;2022-10-16T09:06:47;100551.78;;;18.57;86.97
62462;BME280;48511;38.664;-9.202;2022-10-16T09:11:26;100554.19;;;18.82;84.08
62462;BME280;48511;38.664;-9.202;2022-10-16T09:13:43;100541.97;;;18.93;84.30
62462;BME280;48511;38.664;-9.202;2022-10-16T09:18:07;100550.25;;;18.99;82.73
62462;BME280;48511;38.664;-9.202;2022-10-16T09:22:21;100560.94;;;18.98;82.15
62462;BME280;48511;38.664;-9.202;2022-10-16T09:24:25;100553.47;;;18.92;82.20
62462;BME280;48511;38.664;-9.202;2022-10-16T09:26:26;100555.44;;;18.90;82.17
62462;BME280;48511;38.664;-9.202;2022-10-16T09:28:27;100550.34;;;18.86;82.41
62462;BME280;48511;38.664;-9.202;2022-10-16T09:30:29;100566.19;;;18.86;82.32
62462;BME280;48511;38.664;-9.202;2022-10-16T09:32:30;100557.78;;;18.81;82.17
62462;BME280;48511;38.664;-9.202;2022-10-16T09:34:42;100551.53;;;18.82;82.50
62462;BME280;48511;38.664;-9.202;2022-10-16T09:36:44;100550.59;;;18.83;82.05
62462;BME280;48511;38.664;-9.202;2022-10-16T09:38:47;100550.59;;;18.83;81.97
62462;BME280;48511;38.664;-9.202;2022-10-16T09:40:47;100547.81;;;18.85;82.14
62462;BME280;48511;38.664;-9.202;2022-10-16T09:42:49;100546.28;;;18.94;81.88
62462;BME280;48511;38.664;-9.202;2022-10-16T09:44:50;100551.44;;;19.07;81.47
62462;BME280;48511;38.664;-9.202;2022-10-16T09:47:11;100556.84;;;19.16;81.03
62462;BME280;48511;38.664;-9.202;2022-10-16T09:49:24;100561.38;;;19.26;80.42
62462;BME280;48511;38.664;-9.202;2022-10-16T09:51:36;100561.13;;;19.29;79.45
62462;BME280;48511;38.664;-9.202;2022-10-16T09:53:39;100555.50;;;19.22;79.02
62462;BME280;48511;38.664;-9.202;2022-10-16T09:55:51;100561.03;;;19.19;78.48
62462;BME280;48511;38.664;-9.202;2022-10-16T09:57:53;100564.63;;;19.18;78.65
62462;BME280;48511;38.664;-9.202;2022-10-16T09:59:56;100556.38;;;19.11;78.85
62462;BME280;48511;38.664;-9.202;2022-10-16T10:02:01;100560.19;;;19.18;79.42
62462;BME280;48511;38.664;-9.202;2022-10-16T10:04:04;100568.09;;;19.30;79.30
62462;BME280;48511;38.664;-9.202;2022-10-16T10:08:17;100562.16;;;19.49;79.01
62462;BME280;48511;38.664;-9.202;2022-10-16T10:10:26;100551.94;;;19.56;78.42
62462;BME280;48511;38.664;-9.202;2022-10-16T10:12:29;100553.56;;;19.68;78.58
62462;BME280;48511;38.664;-9.202;2022-10-16T10:14:36;100556.66;;;19.85;78.16
62462;BME280;48511;38.664;-9.202;2022-10-16T10:16:37;100561.56;;;19.89;76.37
62462;BME280;48511;38.664;-9.202;2022-10-16T10:18:38;100569.44;;;20.00;75.96
62462;BME280;48511;38.664;-9.202;2022-10-16T10:20:39;100567.84;;;20.09;75.72
62462;BME280;48511;38.664;-9.202;2022-10-16T10:22:44;100556.94;;;20.24;75.55
62462;BME280;48511;38.664;-9.202;2022-10-16T10:27:16;100558.50;;;20.57;73.90
62462;BME280;48511;38.664;-9.202;2022-10-16T10:29:31;100559.47;;;20.77;73.55
62462;BME280;48511;38.664;-9.202;2022-10-16T10:41:01;100559.66;;;21.36;69.70
62462;BME280;48511;38.664;-9.202;2022-10-16T10:45:28;100565.38;;;21.41;69.26
62462;BME280;48511;38.664;-9.202;2022-10-16T10:48:03;100559.09;;;21.42;69.10
62462;BME280;48511;38.664;-9.202;2022-10-16T10:50:14;100549.94;;;21.56;69.12
62462;BME280;48511;38.664;-9.202;2022-10-16T10:54:39;100545.19;;;21.70;67.15
62462;BME280;48511;38.664;-9.202;2022-10-16T10:56:44;100538.75;;;21.92;66.79
62462;BME280;48511;38.664;-9.202;2022-10-16T10:59:12;100545.72;;;22.12;65.72
62462;BME280;48511;38.664;-9.202;2022-10-16T11:01:32;100548.59;;;22.29;64.59
62462;BME280;48511;38.664;-9.202;2022-10-16T11:04:08;100548.19;;;22.43;64.78
62462;BME280;48511;38.664;-9.202;2022-10-16T11:06:19;100551.69;;;22.44;63.17
62462;BME280;48511;38.664;-9.202;2022-10-16T11:08:36;100542.16;;;22.32;63.21
62462;BME280;48511;38.664;-9.202;2022-10-16T11:10:52;100544.84;;;22.41;64.07
62462;BME280;48511;38.664;-9.202;2022-10-16T11:13:19;100549.59;;;22.38;64.12
62462;BME280;48511;38.664;-9.202;2022-10-16T11:15:29;100553.25;;;22.27;64.16
62462;BME280;48511;38.664;-9.202;2022-10-16T11:17:39;100564.16;;;22.04;64.70
62462;BME280;48511;38.664;-9.202;2022-10-16T11:19:46;100569.19;;;21.88;65.32
62462;BME280;48511;38.664;-9.202;2022-10-16T11:22:13;100564.16;;;21.55;65.18
62462;BME280;48511;38.664;-9.202;2022-10-16T11:24:34;100561.06;;;21.50;66.36
62462;BME280;48511;38.664;-9.202;2022-10-16T11:26:39;100559.38;;;21.49;66.03
62462;BME280;48511;38.664;-9.202;2022-10-16T11:28:45;100542.38;;;21.52;66.96